Flight Track Log - Related Links

Times and Time Zones

All times are in EDT time to prevent confusion due to time zone crossing. See the RPA3143 flight status page for this flight to view local times or setup timezone preferences in your user account.

Time Position Orientation Groundspeed Altitude Reporting Facility
EDT Latitude Longitude Course Direction KTS MPH feet Rate Location/Type
Fri 06:01:47 AM 40.4872 -80.1028 166° South 248 285 4,800  Level Cleveland Center
Fri 06:02:47 AM 40.4267 -80.0675 156° South 262 302 8,000 3,050 Climbing Cleveland Center
Fri 06:03:00 AM 40.2778 -79.7976 162° South  Level Estimated
Fri 06:03:47 AM 40.3661 -80.0517 169° South 262 302 10,900  Level Cleveland Center
Fri 06:04:00 AM 40.1951 -79.8680 213° Southwest  Level FlightAware Approximate
Fri 06:04:47 AM 40.2597 -80.0281 170° South 317 365 14,000  Level Cleveland Center
Fri 06:05:00 AM 40.1447 -79.7571 161° South  Level Estimated
Fri 06:05:47 AM 40.1636 -80.0044 169° South 346 398 17,400  Level Cleveland Center
Fri 06:06:00 AM 40.0541 -79.8080 203° Southwest  Level FlightAware Approximate
Fri 06:06:47 AM 40.0844 -79.9861 170° South 346 398 20,400  Level Cleveland Center
Fri 06:07:00 AM 40.0071 -79.6948 166° South  Level Estimated
Fri 06:07:47 AM 39.9906 -79.9625 169° South 346 398 21,000  Level Cleveland Center
Fri 06:08:47 AM 39.8986 -79.9417 170° South 346 398 21,000  Level Cleveland Center
Fri 06:09:47 AM 39.8089 -79.9211 170° South 341 392 21,000  Level Cleveland Center
Fri 06:12:00 AM 39.6064 -79.8717 169° South 346 398 21,000  Level Washington Center
Fri 06:13:01 AM 39.5133 -79.8553 172° South 351 404 21,000  Level Washington Center
Fri 06:13:59 AM 39.4219 -79.8419 174° South 346 398 21,000  Level Washington Center
Fri 06:14:59 AM 39.3339 -79.7992 159° South 346 398 21,000  Level Washington Center
Fri 06:16:00 AM 39.2858 -79.6811 118° Southeast 337 388 21,000  Level Washington Center
Fri 06:17:00 AM 39.2758 -79.5436 95° East 334 384 21,000  Level Washington Center
Fri 06:17:58 AM 39.2636 -79.4089 97° East 354 407 21,000  Level Washington Center
Fri 06:19:00 AM 39.2533 -79.2717 95° East 375 432 21,000  Level Washington Center
Fri 06:20:00 AM 39.2347 -79.1261 99° East 375 432 21,000  Level Washington Center
Fri 06:21:01 AM 39.2239 -78.9917 96° East 375 432 21,000  Level Washington Center
Fri 06:22:01 AM 39.2131 -78.8597 96° East 370 426 21,000  Level Washington Center
Fri 06:23:01 AM 39.1997 -78.7281 97° East 370 426 21,000 -458 Level Washington Center
Fri 06:23:59 AM 39.1847 -78.5881 98° East 375 432 20,100 -1,513 Descending Washington Center
Fri 06:25:00 AM 39.1714 -78.4508 97° East 386 444 18,000 -1,488 Descending Washington Center
Fri 06:26:00 AM 39.1514 -78.3192 101° East 386 444 17,100 -446 Descending Washington Center
Fri 06:27:01 AM 39.1208 -78.1947 108° East 369 425 17,100 -252 Level Washington Center
Fri 06:27:59 AM 39.0900 -78.0708 108° East 369 425 16,600 -1,220 Descending Washington Center
Fri 06:28:59 AM 39.0569 -77.9492 109° East 369 425 14,700 -1,820 Descending Washington Center
Fri 06:30:01 AM 39.0300 -77.8389 107° East 342 394 12,900 -1,650 Descending Washington Center
Fri 06:30:59 AM 39.0067 -77.7447 108° East 310 357 11,400 -1,576 Descending Washington Center
Fri 06:31:59 AM 38.9753 -77.6369 111° Southeast 296 341 9,800 -1,243 Descending Washington Center
Fri 06:33:19 AM 38.9333 -77.5000 111° Southeast 285 328 8,500 -985 Descending Potomac TRACON
Fri 06:34:13 AM 38.9000 -77.4167 117° Southeast 276 318 7,600 -1,105 Descending Potomac TRACON
Fri 06:35:13 AM 38.8667 -77.3500 123° Southeast 257 296 6,400 -842 Descending Potomac TRACON
Fri 06:36:07 AM 38.8333 -77.2667 117° Southeast 261 300 6,000 -211 Descending Potomac TRACON
Fri 06:37:07 AM 38.8000 -77.2000 123° Southeast 245 282 6,000  Level Potomac TRACON
Fri 06:38:01 AM 38.7667 -77.1333 123° Southeast 196 226 6,000 -158 Level Potomac TRACON
Fri 06:39:01 AM 38.7333 -77.1167 159° South 215 247 5,700 -900 Descending Potomac TRACON
Fri 06:40:01 AM 38.6667 -77.1000 169° South 221 254 4,200 -895 Descending Potomac TRACON
Fri 06:40:55 AM 38.6167 -77.1000 180° South 207 238 4,000 -474 Descending Potomac TRACON
Fri 06:41:55 AM 38.6167 -77.0500 90° East 165 190 3,300 -750 Descending Potomac TRACON
Fri 06:42:55 AM 38.6500 -77.0167 38° Northeast 149 171 2,500 -421 Descending Potomac TRACON
Fri 06:43:49 AM 38.7000 -77.0167 360° North 156 180 2,500  Level Potomac TRACON

Login

Don't have an account? Register now (free) for customized features, flight alerts, and more!